sensor_id;sensor_type;location;lat;lon;timestamp;P1;durP1;ratioP1;P2;durP2;ratioP2
9771;SDS011;4925;52.588;13.370;2023-04-24T00:02:22;5.60;;;4.10;;
9771;SDS011;4925;52.588;13.370;2023-04-24T00:04:48;3.63;;;3.33;;
9771;SDS011;4925;52.588;13.370;2023-04-24T00:07:14;4.87;;;3.50;;
9771;SDS011;4925;52.588;13.370;2023-04-24T00:09:42;4.80;;;3.67;;
9771;SDS011;4925;52.588;13.370;2023-04-24T00:12:08;3.87;;;3.50;;
9771;SDS011;4925;52.588;13.370;2023-04-24T00:14:34;4.10;;;3.80;;
9771;SDS011;4925;52.588;13.370;2023-04-24T00:17:00;3.63;;;3.33;;
9771;SDS011;4925;52.588;13.370;2023-04-24T00:19:27;3.67;;;3.27;;
9771;SDS011;4925;52.588;13.370;2023-04-24T00:21:54;3.70;;;3.47;;
9771;SDS011;4925;52.588;13.370;2023-04-24T00:24:20;3.47;;;3.17;;
9771;SDS011;4925;52.588;13.370;2023-04-24T00:26:46;4.90;;;3.30;;
9771;SDS011;4925;52.588;13.370;2023-04-24T00:29:12;3.53;;;3.23;;
9771;SDS011;4925;52.588;13.370;2023-04-24T00:31:37;3.53;;;3.27;;
9771;SDS011;4925;52.588;13.370;2023-04-24T00:34:03;3.40;;;3.10;;
9771;SDS011;4925;52.588;13.370;2023-04-24T00:36:29;4.67;;;3.97;;
9771;SDS011;4925;52.588;13.370;2023-04-24T00:38:56;3.87;;;3.20;;
9771;SDS011;4925;52.588;13.370;2023-04-24T00:41:22;4.67;;;4.27;;
9771;SDS011;4925;52.588;13.370;2023-04-24T00:43:49;4.40;;;4.00;;
9771;SDS011;4925;52.588;13.370;2023-04-24T00:46:15;5.50;;;4.30;;
9771;SDS011;4925;52.588;13.370;2023-04-24T00:48:41;4.13;;;3.73;;
9771;SDS011;4925;52.588;13.370;2023-04-24T00:51:08;4.17;;;3.80;;
9771;SDS011;4925;52.588;13.370;2023-04-24T00:53:34;4.27;;;3.87;;
9771;SDS011;4925;52.588;13.370;2023-04-24T00:56:00;4.37;;;4.03;;
9771;SDS011;4925;52.588;13.370;2023-04-24T00:58:26;4.17;;;3.87;;
9771;SDS011;4925;52.588;13.370;2023-04-24T01:00:53;4.20;;;3.43;;
9771;SDS011;4925;52.588;13.370;2023-04-24T01:03:20;4.43;;;4.03;;
9771;SDS011;4925;52.588;13.370;2023-04-24T01:05:49;4.10;;;3.70;;
9771;SDS011;4925;52.588;13.370;2023-04-24T01:08:15;3.83;;;3.53;;
9771;SDS011;4925;52.588;13.370;2023-04-24T01:10:41;4.90;;;4.50;;
9771;SDS011;4925;52.588;13.370;2023-04-24T01:13:09;4.53;;;4.13;;
9771;SDS011;4925;52.588;13.370;2023-04-24T01:15:35;5.40;;;4.00;;
9771;SDS011;4925;52.588;13.370;2023-04-24T01:18:01;4.40;;;3.53;;
9771;SDS011;4925;52.588;13.370;2023-04-24T01:20:27;4.03;;;3.73;;
9771;SDS011;4925;52.588;13.370;2023-04-24T01:22:56;3.77;;;3.40;;
9771;SDS011;4925;52.588;13.370;2023-04-24T01:25:22;6.67;;;4.07;;
9771;SDS011;4925;52.588;13.370;2023-04-24T01:27:49;3.53;;;3.20;;
9771;SDS011;4925;52.588;13.370;2023-04-24T01:30:16;3.63;;;3.33;;
9771;SDS011;4925;52.588;13.370;2023-04-24T01:32:42;3.70;;;3.40;;
9771;SDS011;4925;52.588;13.370;2023-04-24T01:35:10;4.17;;;3.80;;
9771;SDS011;4925;52.588;13.370;2023-04-24T01:37:35;3.80;;;3.50;;
9771;SDS011;4925;52.588;13.370;2023-04-24T01:40:07;3.90;;;3.20;;
9771;SDS011;4925;52.588;13.370;2023-04-24T01:42:34;4.07;;;3.10;;
9771;SDS011;4925;52.588;13.370;2023-04-24T01:45:00;2.97;;;2.77;;
9771;SDS011;4925;52.588;13.370;2023-04-24T01:47:28;4.47;;;3.30;;
9771;SDS011;4925;52.588;13.370;2023-04-24T01:49:55;3.77;;;3.47;;
9771;SDS011;4925;52.588;13.370;2023-04-24T01:52:22;3.40;;;3.00;;
9771;SDS011;4925;52.588;13.370;2023-04-24T01:54:47;4.33;;;3.60;;
9771;SDS011;4925;52.588;13.370;2023-04-24T01:57:13;5.73;;;3.20;;
9771;SDS011;4925;52.588;13.370;2023-04-24T01:59:39;3.93;;;3.57;;
9771;SDS011;4925;52.588;13.370;2023-04-24T02:02:05;4.20;;;3.30;;
9771;SDS011;4925;52.588;13.370;2023-04-24T02:04:31;4.20;;;3.80;;
9771;SDS011;4925;52.588;13.370;2023-04-24T02:06:57;4.80;;;4.33;;
9771;SDS011;4925;52.588;13.370;2023-04-24T02:09:22;4.93;;;4.03;;
9771;SDS011;4925;52.588;13.370;2023-04-24T02:11:48;3.23;;;2.90;;
9771;SDS011;4925;52.588;13.370;2023-04-24T02:14:14;3.40;;;3.20;;
9771;SDS011;4925;52.588;13.370;2023-04-24T02:16:39;4.73;;;4.33;;
9771;SDS011;4925;52.588;13.370;2023-04-24T02:19:05;3.70;;;3.40;;
9771;SDS011;4925;52.588;13.370;2023-04-24T02:21:31;3.80;;;3.50;;
9771;SDS011;4925;52.588;13.370;2023-04-24T02:23:57;4.50;;;3.50;;
9771;SDS011;4925;52.588;13.370;2023-04-24T02:26:23;3.77;;;3.47;;
9771;SDS011;4925;52.588;13.370;2023-04-24T02:28:49;3.87;;;3.57;;
9771;SDS011;4925;52.588;13.370;2023-04-24T02:31:15;4.83;;;3.70;;
9771;SDS011;4925;52.588;13.370;2023-04-24T02:33:41;3.80;;;3.50;;
9771;SDS011;4925;52.588;13.370;2023-04-24T02:36:06;3.97;;;3.50;;
9771;SDS011;4925;52.588;13.370;2023-04-24T02:38:32;4.50;;;4.00;;
9771;SDS011;4925;52.588;13.370;2023-04-24T02:40:59;5.90;;;4.60;;
9771;SDS011;4925;52.588;13.370;2023-04-24T02:43:25;4.10;;;3.67;;
9771;SDS011;4925;52.588;13.370;2023-04-24T02:45:51;4.37;;;3.97;;
9771;SDS011;4925;52.588;13.370;2023-04-24T02:48:17;7.27;;;4.10;;
9771;SDS011;4925;52.588;13.370;2023-04-24T02:50:43;5.30;;;3.77;;
9771;SDS011;4925;52.588;13.370;2023-04-24T02:53:09;4.13;;;3.83;;
9771;SDS011;4925;52.588;13.370;2023-04-24T02:55:35;4.23;;;3.83;;
9771;SDS011;4925;52.588;13.370;2023-04-24T02:58:01;4.37;;;4.07;;
9771;SDS011;4925;52.588;13.370;2023-04-24T03:00:26;4.40;;;4.00;;
9771;SDS011;4925;52.588;13.370;2023-04-24T03:02:52;6.03;;;3.90;;
9771;SDS011;4925;52.588;13.370;2023-04-24T03:05:18;4.60;;;4.20;;
9771;SDS011;4925;52.588;13.370;2023-04-24T03:07:43;4.60;;;4.20;;
9771;SDS011;4925;52.588;13.370;2023-04-24T03:10:10;4.57;;;4.17;;
9771;SDS011;4925;52.588;13.370;2023-04-24T03:12:36;4.33;;;3.87;;
9771;SDS011;4925;52.588;13.370;2023-04-24T03:15:01;4.30;;;4.00;;
9771;SDS011;4925;52.588;13.370;2023-04-24T03:17:27;5.40;;;4.10;;
9771;SDS011;4925;52.588;13.370;2023-04-24T03:19:53;5.27;;;4.07;;
9771;SDS011;4925;52.588;13.370;2023-04-24T03:22:19;4.37;;;3.90;;
9771;SDS011;4925;52.588;13.370;2023-04-24T03:24:45;4.60;;;4.20;;
9771;SDS011;4925;52.588;13.370;2023-04-24T03:27:10;5.07;;;4.37;;
9771;SDS011;4925;52.588;13.370;2023-04-24T03:29:36;4.63;;;4.23;;
9771;SDS011;4925;52.588;13.370;2023-04-24T03:32:01;4.90;;;4.17;;
9771;SDS011;4925;52.588;13.370;2023-04-24T03:34:27;4.90;;;4.50;;
9771;SDS011;4925;52.588;13.370;2023-04-24T03:36:53;6.73;;;4.83;;
9771;SDS011;4925;52.588;13.370;2023-04-24T03:39:18;5.07;;;4.67;;
9771;SDS011;4925;52.588;13.370;2023-04-24T03:41:44;4.37;;;4.07;;
9771;SDS011;4925;52.588;13.370;2023-04-24T03:44:10;5.07;;;4.57;;
9771;SDS011;4925;52.588;13.370;2023-04-24T03:46:35;4.97;;;4.53;;
9771;SDS011;4925;52.588;13.370;2023-04-24T03:49:01;5.13;;;4.63;;
9771;SDS011;4925;52.588;13.370;2023-04-24T03:51:27;5.97;;;4.53;;
9771;SDS011;4925;52.588;13.370;2023-04-24T03:53:53;4.80;;;4.27;;
9771;SDS011;4925;52.588;13.370;2023-04-24T03:56:18;5.43;;;5.00;;
9771;SDS011;4925;52.588;13.370;2023-04-24T03:58:45;7.50;;;4.53;;
9771;SDS011;4925;52.588;13.370;2023-04-24T04:01:11;6.10;;;4.67;;
9771;SDS011;4925;52.588;13.370;2023-04-24T04:03:37;5.50;;;4.33;;
9771;SDS011;4925;52.588;13.370;2023-04-24T04:06:02;5.80;;;4.33;;
9771;SDS011;4925;52.588;13.370;2023-04-24T04:08:28;7.03;;;4.57;;
9771;SDS011;4925;52.588;13.370;2023-04-24T04:10:54;5.20;;;4.70;;
9771;SDS011;4925;52.588;13.370;2023-04-24T04:13:19;5.17;;;4.77;;
9771;SDS011;4925;52.588;13.370;2023-04-24T04:15:45;6.87;;;4.63;;
9771;SDS011;4925;52.588;13.370;2023-04-24T04:18:11;5.97;;;5.10;;
9771;SDS011;4925;52.588;13.370;2023-04-24T04:20:37;6.33;;;4.60;;
9771;SDS011;4925;52.588;13.370;2023-04-24T04:23:02;5.07;;;4.50;;
9771;SDS011;4925;52.588;13.370;2023-04-24T04:25:28;4.77;;;4.37;;
9771;SDS011;4925;52.588;13.370;2023-04-24T04:27:55;5.03;;;4.00;;
9771;SDS011;4925;52.588;13.370;2023-04-24T04:30:21;4.33;;;3.73;;
9771;SDS011;4925;52.588;13.370;2023-04-24T04:32:46;6.60;;;4.10;;
9771;SDS011;4925;52.588;13.370;2023-04-24T04:35:12;4.40;;;4.00;;
9771;SDS011;4925;52.588;13.370;2023-04-24T04:37:38;5.57;;;3.93;;
9771;SDS011;4925;52.588;13.370;2023-04-24T04:40:05;4.23;;;3.83;;
9771;SDS011;4925;52.588;13.370;2023-04-24T04:42:31;3.50;;;3.20;;
9771;SDS011;4925;52.588;13.370;2023-04-24T04:45:05;4.37;;;3.27;;
9771;SDS011;4925;52.588;13.370;2023-04-24T04:47:34;4.60;;;3.20;;
9771;SDS011;4925;52.588;13.370;2023-04-24T04:50:00;3.20;;;2.93;;
9771;SDS011;4925;52.588;13.370;2023-04-24T04:52:26;3.77;;;3.30;;
9771;SDS011;4925;52.588;13.370;2023-04-24T04:54:52;3.23;;;3.00;;
9771;SDS011;4925;52.588;13.370;2023-04-24T04:57:18;6.67;;;3.63;;
9771;SDS011;4925;52.588;13.370;2023-04-24T04:59:43;4.20;;;3.23;;
9771;SDS011;4925;52.588;13.370;2023-04-24T05:02:09;3.63;;;3.33;;
9771;SDS011;4925;52.588;13.370;2023-04-24T05:04:35;4.17;;;3.10;;
9771;SDS011;4925;52.588;13.370;2023-04-24T05:07:01;3.90;;;3.53;;
9771;SDS011;4925;52.588;13.370;2023-04-24T05:09:27;4.00;;;3.30;;
9771;SDS011;4925;52.588;13.370;2023-04-24T05:11:54;5.77;;;3.40;;
9771;SDS011;4925;52.588;13.370;2023-04-24T05:14:21;7.80;;;4.17;;
9771;SDS011;4925;52.588;13.370;2023-04-24T05:16:47;5.40;;;3.20;;
9771;SDS011;4925;52.588;13.370;2023-04-24T05:19:13;5.67;;;3.33;;
9771;SDS011;4925;52.588;13.370;2023-04-24T05:21:39;4.53;;;3.40;;
9771;SDS011;4925;52.588;13.370;2023-04-24T05:24:06;3.53;;;3.07;;
9771;SDS011;4925;52.588;13.370;2023-04-24T05:26:31;8.60;;;4.00;;
9771;SDS011;4925;52.588;13.370;2023-04-24T05:28:57;8.13;;;2.80;;
9771;SDS011;4925;52.588;13.370;2023-04-24T05:31:23;4.83;;;3.07;;
9771;SDS011;4925;52.588;13.370;2023-04-24T05:33:49;3.67;;;3.20;;
9771;SDS011;4925;52.588;13.370;2023-04-24T05:36:14;3.37;;;2.73;;
9771;SDS011;4925;52.588;13.370;2023-04-24T05:38:40;3.10;;;2.67;;
9771;SDS011;4925;52.588;13.370;2023-04-24T05:41:06;3.83;;;2.80;;
9771;SDS011;4925;52.588;13.370;2023-04-24T05:43:31;2.97;;;2.70;;
9771;SDS011;4925;52.588;13.370;2023-04-24T05:45:57;3.63;;;2.73;;
9771;SDS011;4925;52.588;13.370;2023-04-24T05:48:23;3.27;;;2.87;;
9771;SDS011;4925;52.588;13.370;2023-04-24T05:50:48;2.53;;;2.33;;
9771;SDS011;4925;52.588;13.370;2023-04-24T05:53:14;4.67;;;2.40;;
9771;SDS011;4925;52.588;13.370;2023-04-24T05:55:40;4.10;;;2.60;;
9771;SDS011;4925;52.588;13.370;2023-04-24T05:58:06;4.93;;;2.77;;
9771;SDS011;4925;52.588;13.370;2023-04-24T06:00:32;7.13;;;3.20;;
9771;SDS011;4925;52.588;13.370;2023-04-24T06:02:59;3.33;;;3.03;;
9771;SDS011;4925;52.588;13.370;2023-04-24T06:05:25;2.60;;;2.40;;
9771;SDS011;4925;52.588;13.370;2023-04-24T06:07:51;2.97;;;2.70;;
9771;SDS011;4925;52.588;13.370;2023-04-24T06:10:17;5.03;;;2.93;;
9771;SDS011;4925;52.588;13.370;2023-04-24T06:12:43;3.10;;;2.40;;
9771;SDS011;4925;52.588;13.370;2023-04-24T06:15:08;3.57;;;2.60;;
9771;SDS011;4925;52.588;13.370;2023-04-24T06:17:35;2.40;;;2.20;;
9771;SDS011;4925;52.588;13.370;2023-04-24T06:20:00;5.43;;;2.60;;
9771;SDS011;4925;52.588;13.370;2023-04-24T06:22:28;2.10;;;2.00;;
9771;SDS011;4925;52.588;13.370;2023-04-24T06:24:54;2.20;;;2.03;;
9771;SDS011;4925;52.588;13.370;2023-04-24T06:27:20;2.03;;;1.83;;
9771;SDS011;4925;52.588;13.370;2023-04-24T06:29:46;5.03;;;2.10;;
9771;SDS011;4925;52.588;13.370;2023-04-24T06:32:17;2.23;;;1.60;;
9771;SDS011;4925;52.588;13.370;2023-04-24T06:34:43;1.90;;;1.70;;
9771;SDS011;4925;52.588;13.370;2023-04-24T06:37:09;2.33;;;2.10;;
9771;SDS011;4925;52.588;13.370;2023-04-24T06:39:34;3.10;;;1.90;;
9771;SDS011;4925;52.588;13.370;2023-04-24T06:42:00;1.73;;;1.63;;
9771;SDS011;4925;52.588;13.370;2023-04-24T06:44:26;1.93;;;1.50;;
9771;SDS011;4925;52.588;13.370;2023-04-24T06:46:51;2.50;;;1.77;;
9771;SDS011;4925;52.588;13.370;2023-04-24T06:49:17;1.63;;;1.50;;
9771;SDS011;4925;52.588;13.370;2023-04-24T06:51:43;3.23;;;1.50;;
9771;SDS011;4925;52.588;13.370;2023-04-24T06:54:08;2.90;;;1.30;;
9771;SDS011;4925;52.588;13.370;2023-04-24T06:56:34;1.30;;;1.10;;
9771;SDS011;4925;52.588;13.370;2023-04-24T06:59:00;1.30;;;1.20;;
9771;SDS011;4925;52.588;13.370;2023-04-24T07:01:26;1.80;;;1.40;;
9771;SDS011;4925;52.588;13.370;2023-04-24T07:03:52;1.00;;;1.00;;
9771;SDS011;4925;52.588;13.370;2023-04-24T07:06:17;1.07;;;1.07;;
9771;SDS011;4925;52.588;13.370;2023-04-24T07:08:46;1.70;;;1.00;;
9771;SDS011;4925;52.588;13.370;2023-04-24T07:11:12;0.90;;;0.90;;
9771;SDS011;4925;52.588;13.370;2023-04-24T07:13:38;0.80;;;0.80;;
9771;SDS011;4925;52.588;13.370;2023-04-24T07:16:06;2.40;;;0.93;;
9771;SDS011;4925;52.588;13.370;2023-04-24T07:18:33;1.60;;;1.07;;
9771;SDS011;4925;52.588;13.370;2023-04-24T07:20:59;2.60;;;1.00;;
9771;SDS011;4925;52.588;13.370;2023-04-24T07:23:25;0.90;;;0.90;;
9771;SDS011;4925;52.588;13.370;2023-04-24T07:25:51;0.93;;;0.53;;
9771;SDS011;4925;52.588;13.370;2023-04-24T07:28:17;0.53;;;0.53;;
9771;SDS011;4925;52.588;13.370;2023-04-24T07:30:43;1.33;;;0.73;;
9771;SDS011;4925;52.588;13.370;2023-04-24T07:33:09;1.17;;;0.70;;
9771;SDS011;4925;52.588;13.370;2023-04-24T07:35:37;1.63;;;0.80;;
9771;SDS011;4925;52.588;13.370;2023-04-24T07:38:03;1.13;;;0.63;;
9771;SDS011;4925;52.588;13.370;2023-04-24T07:40:29;1.53;;;0.73;;
9771;SDS011;4925;52.588;13.370;2023-04-24T07:42:55;0.50;;;0.50;;
9771;SDS011;4925;52.588;13.370;2023-04-24T07:45:21;1.33;;;0.67;;
9771;SDS011;4925;52.588;13.370;2023-04-24T07:47:48;3.27;;;0.80;;
9771;SDS011;4925;52.588;13.370;2023-04-24T07:50:13;1.97;;;0.67;;
9771;SDS011;4925;52.588;13.370;2023-04-24T07:52:39;2.37;;;0.70;;
9771;SDS011;4925;52.588;13.370;2023-04-24T07:55:05;0.50;;;0.50;;
9771;SDS011;4925;52.588;13.370;2023-04-24T07:57:31;0.40;;;0.40;;
9771;SDS011;4925;52.588;13.370;2023-04-24T08:00:00;0.47;;;0.40;;
9771;SDS011;4925;52.588;13.370;2023-04-24T08:02:27;3.43;;;0.80;;
9771;SDS011;4925;52.588;13.370;2023-04-24T08:04:52;0.80;;;0.80;;
9771;SDS011;4925;52.588;13.370;2023-04-24T08:07:21;0.67;;;0.67;;
9771;SDS011;4925;52.588;13.370;2023-04-24T08:09:48;1.40;;;0.87;;
9771;SDS011;4925;52.588;13.370;2023-04-24T08:12:13;1.33;;;0.77;;
9771;SDS011;4925;52.588;13.370;2023-04-24T08:14:39;1.27;;;0.87;;
9771;SDS011;4925;52.588;13.370;2023-04-24T08:17:05;0.70;;;0.70;;
9771;SDS011;4925;52.588;13.370;2023-04-24T08:19:31;3.37;;;0.80;;
9771;SDS011;4925;52.588;13.370;2023-04-24T08:21:56;1.80;;;0.50;;
9771;SDS011;4925;52.588;13.370;2023-04-24T08:24:22;1.63;;;0.83;;
9771;SDS011;4925;52.588;13.370;2023-04-24T08:26:48;0.60;;;0.60;;
9771;SDS011;4925;52.588;13.370;2023-04-24T08:29:18;0.52;;;0.50;;
9771;SDS011;4925;52.588;13.370;2023-04-24T08:31:44;0.60;;;0.60;;
9771;SDS011;4925;52.588;13.370;2023-04-24T08:34:10;1.23;;;0.90;;
9771;SDS011;4925;52.588;13.370;2023-04-24T08:36:36;0.73;;;0.73;;
9771;SDS011;4925;52.588;13.370;2023-04-24T08:39:02;0.73;;;0.63;;
9771;SDS011;4925;52.588;13.370;2023-04-24T08:41:28;1.60;;;0.50;;
9771;SDS011;4925;52.588;13.370;2023-04-24T08:43:55;0.67;;;0.67;;
9771;SDS011;4925;52.588;13.370;2023-04-24T08:46:23;0.40;;;0.40;;
9771;SDS011;4925;52.588;13.370;2023-04-24T08:48:50;0.50;;;0.50;;
9771;SDS011;4925;52.588;13.370;2023-04-24T08:51:17;0.50;;;0.50;;
9771;SDS011;4925;52.588;13.370;2023-04-24T08:53:43;0.60;;;0.60;;
9771;SDS011;4925;52.588;13.370;2023-04-24T08:56:11;0.70;;;0.70;;
9771;SDS011;4925;52.588;13.370;2023-04-24T08:58:38;0.55;;;0.55;;
9771;SDS011;4925;52.588;13.370;2023-04-24T09:01:04;1.48;;;0.40;;
9771;SDS011;4925;52.588;13.370;2023-04-24T09:03:30;1.10;;;0.47;;
9771;SDS011;4925;52.588;13.370;2023-04-24T09:05:57;0.63;;;0.63;;
9771;SDS011;4925;52.588;13.370;2023-04-24T09:08:25;1.02;;;0.45;;
9771;SDS011;4925;52.588;13.370;2023-04-24T09:10:53;0.57;;;0.52;;
9771;SDS011;4925;52.588;13.370;2023-04-24T09:13:19;0.40;;;0.40;;
9771;SDS011;4925;52.588;13.370;2023-04-24T09:15:45;0.57;;;0.50;;
9771;SDS011;4925;52.588;13.370;2023-04-24T09:18:11;0.63;;;0.60;;
9771;SDS011;4925;52.588;13.370;2023-04-24T09:23:27;1.10;;;0.57;;
9771;SDS011;4925;52.588;13.370;2023-04-24T09:25:56;1.67;;;0.60;;
9771;SDS011;4925;52.588;13.370;2023-04-24T09:28:32;0.68;;;0.68;;
9771;SDS011;4925;52.588;13.370;2023-04-24T09:31:13;0.90;;;0.85;;
9771;SDS011;4925;52.588;13.370;2023-04-24T09:34:04;1.58;;;0.77;;
9771;SDS011;4925;52.588;13.370;2023-04-24T09:36:34;0.88;;;0.70;;
9771;SDS011;4925;52.588;13.370;2023-04-24T09:39:02;0.98;;;0.73;;
9771;SDS011;4925;52.588;13.370;2023-04-24T09:41:31;1.52;;;0.68;;
9771;SDS011;4925;52.588;13.370;2023-04-24T09:44:01;0.70;;;0.70;;
9771;SDS011;4925;52.588;13.370;2023-04-24T09:46:44;0.50;;;0.50;;
9771;SDS011;4925;52.588;13.370;2023-04-24T09:49:14;0.60;;;0.60;;
9771;SDS011;4925;52.588;13.370;2023-04-24T09:51:41;1.00;;;0.50;;
9771;SDS011;4925;52.588;13.370;2023-04-24T09:54:40;0.60;;;0.55;;
9771;SDS011;4925;52.588;13.370;2023-04-24T09:57:01;1.25;;;0.68;;
9771;SDS011;4925;52.588;13.370;2023-04-24T09:59:27;0.90;;;0.90;;
9771;SDS011;4925;52.588;13.370;2023-04-24T10:01:53;0.80;;;0.80;;
9771;SDS011;4925;52.588;13.370;2023-04-24T10:04:20;1.03;;;0.70;;
9771;SDS011;4925;52.588;13.370;2023-04-24T10:06:48;0.60;;;0.60;;
9771;SDS011;4925;52.588;13.370;2023-04-24T10:09:15;0.93;;;0.80;;
9771;SDS011;4925;52.588;13.370;2023-04-24T10:11:42;1.10;;;0.83;;
9771;SDS011;4925;52.588;13.370;2023-04-24T10:14:12;2.30;;;1.10;;
9771;SDS011;4925;52.588;13.370;2023-04-24T10:16:42;0.60;;;0.60;;
9771;SDS011;4925;52.588;13.370;2023-04-24T10:19:09;1.43;;;0.60;;
9771;SDS011;4925;52.588;13.370;2023-04-24T10:21:35;1.43;;;0.70;;
9771;SDS011;4925;52.588;13.370;2023-04-24T10:24:07;1.20;;;0.80;;
9771;SDS011;4925;52.588;13.370;2023-04-24T10:26:34;0.97;;;0.57;;
9771;SDS011;4925;52.588;13.370;2023-04-24T10:29:00;4.80;;;1.00;;
9771;SDS011;4925;52.588;13.370;2023-04-24T10:31:28;0.53;;;0.53;;
9771;SDS011;4925;52.588;13.370;2023-04-24T10:33:57;0.50;;;0.50;;
9771;SDS011;4925;52.588;13.370;2023-04-24T10:36:24;1.65;;;0.68;;
9771;SDS011;4925;52.588;13.370;2023-04-24T10:38:51;0.80;;;0.80;;
9771;SDS011;4925;52.588;13.370;2023-04-24T10:41:20;0.77;;;0.73;;
9771;SDS011;4925;52.588;13.370;2023-04-24T10:43:48;0.68;;;0.60;;
9771;SDS011;4925;52.588;13.370;2023-04-24T10:46:29;1.73;;;0.77;;
9771;SDS011;4925;52.588;13.370;2023-04-24T10:48:55;1.83;;;0.70;;
9771;SDS011;4925;52.588;13.370;2023-04-24T10:51:22;0.87;;;0.70;;
9771;SDS011;4925;52.588;13.370;2023-04-24T10:53:49;2.57;;;1.00;;
9771;SDS011;4925;52.588;13.370;2023-04-24T10:56:16;0.77;;;0.77;;
9771;SDS011;4925;52.588;13.370;2023-04-24T10:58:49;4.23;;;0.83;;
9771;SDS011;4925;52.588;13.370;2023-04-24T11:01:29;2.03;;;0.83;;
9771;SDS011;4925;52.588;13.370;2023-04-24T11:04:00;1.40;;;0.90;;
9771;SDS011;4925;52.588;13.370;2023-04-24T11:06:31;1.87;;;0.83;;
9771;SDS011;4925;52.588;13.370;2023-04-24T11:09:05;2.27;;;0.93;;
9771;SDS011;4925;52.588;13.370;2023-04-24T11:11:32;2.23;;;0.73;;
9771;SDS011;4925;52.588;13.370;2023-04-24T11:16:44;1.00;;;0.77;;
9771;SDS011;4925;52.588;13.370;2023-04-24T11:21:48;1.27;;;0.85;;
9771;SDS011;4925;52.588;13.370;2023-04-24T11:26:50;1.33;;;0.70;;
9771;SDS011;4925;52.588;13.370;2023-04-24T11:29:19;0.68;;;0.68;;
9771;SDS011;4925;52.588;13.370;2023-04-24T11:31:46;0.55;;;0.55;;
9771;SDS011;4925;52.588;13.370;2023-04-24T11:34:14;0.50;;;0.50;;
9771;SDS011;4925;52.588;13.370;2023-04-24T11:36:45;2.05;;;0.70;;
9771;SDS011;4925;52.588;13.370;2023-04-24T11:39:11;0.80;;;0.80;;
9771;SDS011;4925;52.588;13.370;2023-04-24T11:41:37;0.80;;;0.70;;
9771;SDS011;4925;52.588;13.370;2023-04-24T11:44:05;1.70;;;0.70;;
9771;SDS011;4925;52.588;13.370;2023-04-24T11:46:32;0.77;;;0.77;;
9771;SDS011;4925;52.588;13.370;2023-04-24T11:48:58;1.93;;;0.90;;
9771;SDS011;4925;52.588;13.370;2023-04-24T11:51:25;1.77;;;1.00;;
9771;SDS011;4925;52.588;13.370;2023-04-24T11:53:51;1.57;;;1.00;;
9771;SDS011;4925;52.588;13.370;2023-04-24T11:56:21;4.30;;;1.37;;
9771;SDS011;4925;52.588;13.370;2023-04-24T11:58:48;1.37;;;0.90;;
9771;SDS011;4925;52.588;13.370;2023-04-24T12:01:16;1.30;;;0.93;;
9771;SDS011;4925;52.588;13.370;2023-04-24T12:03:46;3.10;;;1.25;;
9771;SDS011;4925;52.588;13.370;2023-04-24T12:06:13;2.03;;;1.92;;
9771;SDS011;4925;52.588;13.370;2023-04-24T12:08:38;2.95;;;1.35;;
9771;SDS011;4925;52.588;13.370;2023-04-24T12:11:05;0.95;;;0.80;;
9771;SDS011;4925;52.588;13.370;2023-04-24T12:13:35;1.25;;;0.90;;
9771;SDS011;4925;52.588;13.370;2023-04-24T12:16:02;3.20;;;1.05;;
9771;SDS011;4925;52.588;13.370;2023-04-24T12:18:29;2.83;;;1.00;;
9771;SDS011;4925;52.588;13.370;2023-04-24T12:21:03;4.13;;;1.67;;
9771;SDS011;4925;52.588;13.370;2023-04-24T12:23:42;2.63;;;1.38;;
9771;SDS011;4925;52.588;13.370;2023-04-24T12:26:08;4.40;;;1.42;;
9771;SDS011;4925;52.588;13.370;2023-04-24T12:28:37;1.05;;;1.05;;
9771;SDS011;4925;52.588;13.370;2023-04-24T12:31:03;1.88;;;0.82;;
9771;SDS011;4925;52.588;13.370;2023-04-24T12:33:32;2.30;;;1.00;;
9771;SDS011;4925;52.588;13.370;2023-04-24T12:35:59;2.65;;;1.20;;
9771;SDS011;4925;52.588;13.370;2023-04-24T12:38:27;3.17;;;1.20;;
9771;SDS011;4925;52.588;13.370;2023-04-24T12:41:30;0.63;;;0.63;;
9771;SDS011;4925;52.588;13.370;2023-04-24T12:43:51;0.80;;;0.80;;
9771;SDS011;4925;52.588;13.370;2023-04-24T12:46:18;0.80;;;0.77;;
9771;SDS011;4925;52.588;13.370;2023-04-24T12:48:43;1.55;;;0.90;;
9771;SDS011;4925;52.588;13.370;2023-04-24T12:51:09;1.35;;;1.05;;
9771;SDS011;4925;52.588;13.370;2023-04-24T12:53:35;0.88;;;0.60;;
9771;SDS011;4925;52.588;13.370;2023-04-24T12:56:01;0.98;;;0.63;;
9771;SDS011;4925;52.588;13.370;2023-04-24T12:58:27;0.60;;;0.57;;
9771;SDS011;4925;52.588;13.370;2023-04-24T13:00:52;1.08;;;0.55;;
9771;SDS011;4925;52.588;13.370;2023-04-24T13:03:19;0.93;;;0.73;;
9771;SDS011;4925;52.588;13.370;2023-04-24T13:05:44;0.50;;;0.50;;
9771;SDS011;4925;52.588;13.370;2023-04-24T13:08:10;3.00;;;0.90;;
9771;SDS011;4925;52.588;13.370;2023-04-24T13:10:37;1.00;;;0.80;;
9771;SDS011;4925;52.588;13.370;2023-04-24T13:13:04;1.63;;;0.70;;
9771;SDS011;4925;52.588;13.370;2023-04-24T13:15:29;0.95;;;0.93;;
9771;SDS011;4925;52.588;13.370;2023-04-24T13:17:55;1.53;;;1.00;;
9771;SDS011;4925;52.588;13.370;2023-04-24T13:20:21;3.25;;;1.10;;
9771;SDS011;4925;52.588;13.370;2023-04-24T13:22:46;0.80;;;0.80;;
9771;SDS011;4925;52.588;13.370;2023-04-24T13:25:12;0.80;;;0.80;;
9771;SDS011;4925;52.588;13.370;2023-04-24T13:27:41;0.68;;;0.63;;
9771;SDS011;4925;52.588;13.370;2023-04-24T13:30:07;2.20;;;0.70;;
9771;SDS011;4925;52.588;13.370;2023-04-24T13:32:33;0.80;;;0.80;;
9771;SDS011;4925;52.588;13.370;2023-04-24T13:35:00;3.70;;;1.15;;
9771;SDS011;4925;52.588;13.370;2023-04-24T13:37:26;1.92;;;0.73;;
9771;SDS011;4925;52.588;13.370;2023-04-24T13:39:51;0.77;;;0.70;;
9771;SDS011;4925;52.588;13.370;2023-04-24T13:42:17;1.08;;;0.73;;
9771;SDS011;4925;52.588;13.370;2023-04-24T13:44:43;0.85;;;0.85;;
9771;SDS011;4925;52.588;13.370;2023-04-24T13:47:09;4.95;;;0.90;;
9771;SDS011;4925;52.588;13.370;2023-04-24T13:49:35;5.00;;;0.95;;
9771;SDS011;4925;52.588;13.370;2023-04-24T13:52:01;2.60;;;0.90;;
9771;SDS011;4925;52.588;13.370;2023-04-24T13:54:27;0.52;;;0.50;;
9771;SDS011;4925;52.588;13.370;2023-04-24T13:56:53;1.30;;;0.73;;
9771;SDS011;4925;52.588;13.370;2023-04-24T13:59:19;2.00;;;0.90;;
9771;SDS011;4925;52.588;13.370;2023-04-24T14:01:46;1.10;;;1.10;;
9771;SDS011;4925;52.588;13.370;2023-04-24T14:04:12;2.17;;;0.95;;
9771;SDS011;4925;52.588;13.370;2023-04-24T14:06:38;0.80;;;0.70;;
9771;SDS011;4925;52.588;13.370;2023-04-24T14:09:03;1.95;;;0.90;;
9771;SDS011;4925;52.588;13.370;2023-04-24T14:11:29;0.60;;;0.60;;
9771;SDS011;4925;52.588;13.370;2023-04-24T14:13:55;1.75;;;0.75;;
9771;SDS011;4925;52.588;13.370;2023-04-24T14:16:23;2.53;;;0.93;;
9771;SDS011;4925;52.588;13.370;2023-04-24T14:18:49;1.23;;;0.82;;
9771;SDS011;4925;52.588;13.370;2023-04-24T14:21:15;0.70;;;0.70;;
9771;SDS011;4925;52.588;13.370;2023-04-24T14:23:41;5.10;;;0.98;;
9771;SDS011;4925;52.588;13.370;2023-04-24T14:26:07;0.90;;;0.90;;
9771;SDS011;4925;52.588;13.370;2023-04-24T14:28:33;1.10;;;0.60;;
9771;SDS011;4925;52.588;13.370;2023-04-24T14:30:59;1.13;;;0.98;;
9771;SDS011;4925;52.588;13.370;2023-04-24T14:33:24;1.55;;;0.70;;
9771;SDS011;4925;52.588;13.370;2023-04-24T14:35:50;3.13;;;0.63;;
9771;SDS011;4925;52.588;13.370;2023-04-24T14:38:17;1.38;;;0.90;;
9771;SDS011;4925;52.588;13.370;2023-04-24T14:40:42;0.80;;;0.80;;
9771;SDS011;4925;52.588;13.370;2023-04-24T14:43:08;1.40;;;0.65;;
9771;SDS011;4925;52.588;13.370;2023-04-24T14:45:34;1.52;;;0.70;;
9771;SDS011;4925;52.588;13.370;2023-04-24T14:48:00;2.42;;;1.00;;
9771;SDS011;4925;52.588;13.370;2023-04-24T14:50:26;1.27;;;0.80;;
9771;SDS011;4925;52.588;13.370;2023-04-24T14:52:55;1.02;;;0.93;;
9771;SDS011;4925;52.588;13.370;2023-04-24T14:55:24;2.63;;;0.73;;
9771;SDS011;4925;52.588;13.370;2023-04-24T14:57:51;0.65;;;0.65;;
9771;SDS011;4925;52.588;13.370;2023-04-24T15:00:17;0.75;;;0.75;;
9771;SDS011;4925;52.588;13.370;2023-04-24T15:02:43;2.10;;;0.85;;
9771;SDS011;4925;52.588;13.370;2023-04-24T15:05:09;0.60;;;0.60;;
9771;SDS011;4925;52.588;13.370;2023-04-24T15:07:36;0.70;;;0.70;;
9771;SDS011;4925;52.588;13.370;2023-04-24T15:10:02;0.73;;;0.73;;